Time;durP1;ratioP1;P1;durP2;ratioP2;P2;SDS_P1;SDS_P2;PMS_P1;PMS_P2;Temp;Humidity;BMP_temperature;BMP_pressure;BME280_temperature;BME280_humidity;BME280_pressure;Samples;Min_cycle;Max_cycle;Signal;HPM_P1;HPM_P2
2022/01/01 00:00:58;;;;;;;11.23;8.60;;;13.40;99.90;;;;;;4992144;28;20181;-89
2022/01/01 00:03:24;;;;;;;11.43;9.70;;;13.10;99.90;;;;;;4989804;28;20437;-87
2022/01/01 00:05:49;;;;;;;9.23;8.40;;;14.40;99.90;;;;;;4991062;28;20964;-86
2022/01/01 00:08:18;;;;;;;11.07;8.07;;;13.70;99.90;;;;;;4979113;28;20208;-88
2022/01/01 00:10:46;;;;;;;10.90;7.90;;;13.60;99.90;;;;;;4985597;28;20343;-86
2022/01/01 00:13:20;;;;;;;10.20;7.90;;;13.70;99.90;;;;;;4995533;28;20444;-86
2022/01/01 00:15:48;;;;;;;10.97;8.70;;;11.40;99.90;;;;;;4990943;28;20446;-86
2022/01/01 00:18:16;;;;;;;13.40;9.03;;;14.10;99.90;;;;;;4993688;28;20809;-86
2022/01/01 00:20:42;;;;;;;14.10;8.93;;;13.10;99.90;;;;;;4986801;28;20420;-85
2022/01/01 00:23:07;;;;;;;11.77;8.40;;;13.20;99.90;;;;;;4990565;28;20443;-86
2022/01/01 00:25:33;;;;;;;9.20;8.27;;;13.50;99.90;;;;;;5009213;28;20189;-85
2022/01/01 00:28:12;;;;;;;15.13;10.50;;;13.10;99.90;;;;;;4991398;28;20760;-87
2022/01/01 00:30:38;;;;;;;16.00;9.57;;;12.00;99.90;;;;;;4989936;28;20180;-87
2022/01/01 00:33:04;;;;;;;15.63;10.70;;;15.90;99.90;;;;;;4992370;28;20964;-86
2022/01/01 00:35:30;;;;;;;20.47;11.17;;;15.90;99.90;;;;;;4989005;28;20188;-86
2022/01/01 00:37:55;;;;;;;20.13;10.40;;;13.40;99.90;;;;;;4990008;28;20431;-88
2022/01/01 00:40:21;;;;;;;10.83;9.73;;;12.90;99.90;;;;;;5005294;28;20189;-88
2022/01/01 00:42:46;;;;;;;13.90;9.07;;;15.30;99.90;;;;;;5010419;28;20545;-87
2022/01/01 00:45:12;;;;;;;15.03;10.83;;;14.80;99.90;;;;;;4991953;28;20196;-85
2022/01/01 00:47:38;;;;;;;13.63;10.07;;;13.00;99.90;;;;;;4976925;28;20217;-86
2022/01/01 00:50:05;;;;;;;10.23;8.80;;;13.30;99.90;;;;;;4978146;28;20190;-86
2022/01/01 00:52:30;;;;;;;9.83;8.40;;;13.40;99.90;;;;;;4978590;28;20194;-86
2022/01/01 00:54:56;;;;;;;14.00;9.60;;;13.20;99.90;;;;;;4977842;28;20420;-85
2022/01/01 00:57:22;;;;;;;14.80;9.03;;;;;;;;;;4963943;28;20222;-89
2022/01/01 00:59:51;;;;;;;11.70;9.13;;;13.60;99.90;;;;;;4972954;28;20234;-87
2022/01/01 01:02:17;;;;;;;16.43;10.70;;;13.70;99.90;;;;;;4965902;28;20438;-86
2022/01/01 01:04:43;;;;;;;18.27;9.60;;;;;;;;;;4963985;28;20519;-88
2022/01/01 01:07:12;;;;;;;19.37;11.73;;;13.60;99.90;;;;;;4999178;28;20224;-87
2022/01/01 01:09:38;;;;;;;17.07;10.97;;;13.60;99.90;;;;;;4989546;28;20430;-88
2022/01/01 01:12:04;;;;;;;16.23;9.90;;;13.20;99.90;;;;;;4988291;28;20431;-88
2022/01/01 01:14:39;;;;;;;15.40;9.60;;;14.20;99.90;;;;;;4954974;28;20512;-89
2022/01/01 01:17:05;;;;;;;14.10;10.20;;;15.10;99.90;;;;;;5002864;28;20953;-89
2022/01/01 01:19:31;;;;;;;14.47;9.60;;;15.00;99.90;;;;;;4981887;28;20431;-90
2022/01/01 01:21:58;;;;;;;12.80;9.67;;;13.70;99.90;;;;;;4986665;28;20511;-90
2022/01/01 01:24:25;;;;;;;13.70;11.50;;;15.80;99.90;;;;;;4975612;28;20189;-90
2022/01/01 01:26:52;;;;;;;18.30;12.40;;;15.20;99.90;;;;;;4968902;28;20483;-87
2022/01/01 01:29:19;;;;;;;13.27;10.83;;;16.30;99.90;;;;;;4960317;28;20424;-89
2022/01/01 01:31:46;;;;;;;13.50;10.53;;;15.00;99.90;;;;;;4984371;28;20477;-88
2022/01/01 01:34:12;;;;;;;20.03;11.10;;;12.50;99.90;;;;;;4990038;28;20560;-89
2022/01/01 01:36:38;;;;;;;12.50;9.63;;;16.10;99.90;;;;;;4981512;28;20520;-88
2022/01/01 01:39:05;;;;;;;17.67;10.77;;;13.40;99.90;;;;;;4980703;28;20189;-89
2022/01/01 01:41:31;;;;;;;15.17;11.20;;;15.80;99.90;;;;;;4976852;28;20442;-89
2022/01/01 01:43:58;;;;;;;17.20;11.00;;;13.50;99.90;;;;;;4969008;28;20463;-89
2022/01/01 01:46:25;;;;;;;10.87;8.87;;;13.30;99.90;;;;;;4973462;28;21001;-88
2022/01/01 01:48:51;;;;;;;18.90;10.00;;;13.80;99.90;;;;;;4968359;28;20440;-87
2022/01/01 01:51:17;;;;;;;15.30;10.87;;;13.50;99.90;;;;;;4975102;28;20831;-88
2022/01/01 01:53:43;;;;;;;13.67;10.50;;;13.30;99.90;;;;;;4977844;28;20433;-88
2022/01/01 01:56:09;;;;;;;15.40;10.30;;;13.30;99.90;;;;;;4990676;28;20950;-89
2022/01/01 01:58:35;;;;;;;13.67;10.83;;;13.70;99.90;;;;;;4980430;28;20188;-89
2022/01/01 02:03:29;;;;;;;12.93;11.03;;;11.60;99.90;;;;;;4994590;28;20451;-88
2022/01/01 02:05:57;;;;;;;15.37;11.13;;;13.90;99.90;;;;;;4983154;28;20453;-89
2022/01/01 02:08:24;;;;;;;17.87;12.30;;;13.00;99.90;;;;;;4971537;28;20213;-88
2022/01/01 02:10:52;;;;;;;15.70;12.60;;;14.60;99.90;;;;;;5009827;28;20861;-88
2022/01/01 02:13:30;;;;;;;17.30;12.77;;;13.80;99.90;;;;;;5011456;28;20447;-89
2022/01/01 02:18:21;;;;;;;16.70;13.07;;;14.70;99.90;;;;;;4973356;28;20941;-88
2022/01/01 02:20:50;;;;;;;21.10;14.17;;;14.30;99.90;;;;;;4998194;28;20196;-88
2022/01/01 02:23:25;;;;;;;20.87;14.90;;;13.30;99.90;;;;;;4987220;28;20441;-88
2022/01/01 02:25:53;;;;;;;24.13;16.83;;;13.60;99.90;;;;;;4980780;28;20538;-89
2022/01/01 02:28:19;;;;;;;23.70;14.37;;;13.50;99.90;;;;;;4981458;28;20506;-86
2022/01/01 02:30:45;;;;;;;16.03;12.83;;;14.00;99.90;;;;;;4966534;28;20428;-87
2022/01/01 02:33:11;;;;;;;18.27;14.00;;;13.60;99.90;;;;;;4985562;28;20460;-87
2022/01/01 02:35:39;;;;;;;22.20;13.30;;;13.60;99.90;;;;;;4988548;28;20676;-87
2022/01/01 02:38:07;;;;;;;17.80;13.97;;;12.80;99.90;;;;;;4991504;28;20207;-87
2022/01/01 02:40:41;;;;;;;17.53;14.77;;;14.20;99.90;;;;;;4965050;28;20435;-87
2022/01/01 02:43:07;;;;;;;21.93;12.30;;;13.80;99.90;;;;;;4981099;28;20523;-87
2022/01/01 02:45:33;;;;;;;18.67;12.83;;;14.40;99.90;;;;;;4981434;28;20534;-87
2022/01/01 02:47:59;;;;;;;20.27;14.70;;;13.80;99.90;;;;;;4989992;28;20479;-87
2022/01/01 02:50:25;;;;;;;20.63;13.67;;;14.50;99.90;;;;;;5005973;28;20507;-87
2022/01/01 02:52:51;;;;;;;21.10;14.40;;;15.70;99.90;;;;;;4983400;28;20243;-86
2022/01/01 02:55:29;;;;;;;18.93;13.30;;;15.20;99.90;;;;;;5007210;28;20250;-86
2022/01/01 02:57:57;;;;;;;23.10;12.97;;;13.70;99.90;;;;;;4993683;28;20523;-87
2022/01/01 03:00:23;;;;;;;17.00;13.23;;;14.00;99.90;;;;;;5006217;28;20436;-88
2022/01/01 03:02:52;;;;;;;28.23;15.40;;;14.10;99.90;;;;;;5006481;28;20826;-88
2022/01/01 03:05:17;;;;;;;19.97;15.03;;;12.60;99.90;;;;;;4979148;28;20788;-89
2022/01/01 03:07:43;;;;;;;22.87;13.77;;;15.00;99.90;;;;;;4980616;28;20514;-87
2022/01/01 03:10:10;;;;;;;22.13;15.87;;;13.60;99.90;;;;;;4981114;28;20196;-89
2022/01/01 03:12:41;;;;;;;18.93;14.90;;;14.00;99.90;;;;;;4990223;28;20757;-88
2022/01/01 03:15:07;;;;;;;19.90;13.10;;;15.70;99.90;;;;;;5005844;28;20423;-90
2022/01/01 03:17:33;;;;;;;18.60;14.20;;;13.60;99.90;;;;;;4991191;28;20514;-89
2022/01/01 03:20:02;;;;;;;23.37;14.37;;;13.60;99.90;;;;;;4981235;28;20420;-90
2022/01/01 03:22:28;;;;;;;19.67;13.30;;;13.60;99.90;;;;;;4997054;28;20196;-89
2022/01/01 03:24:56;;;;;;;24.27;14.00;;;16.20;99.90;;;;;;4983018;28;20987;-89
2022/01/01 03:27:23;;;;;;;26.53;15.33;;;14.00;99.90;;;;;;4990828;28;20208;-86
2022/01/01 03:29:57;;;;;;;20.93;14.50;;;13.70;99.90;;;;;;4992787;28;20424;-87
2022/01/01 03:32:23;;;;;;;20.20;13.97;;;15.10;99.90;;;;;;4987573;28;20458;-88
2022/01/01 03:34:51;;;;;;;18.70;14.00;;;13.10;99.90;;;;;;5010730;28;20431;-89
2022/01/01 03:37:16;;;;;;;18.80;14.23;;;14.30;99.90;;;;;;4992432;28;20454;-87
2022/01/01 03:39:58;;;;;;;22.13;13.50;;;16.70;99.90;;;;;;4992942;28;20436;-89
2022/01/01 03:42:30;;;;;;;26.03;14.40;;;17.10;99.90;;;;;;5000266;28;20184;-89
2022/01/01 03:44:57;;;;;;;21.80;15.13;;;16.80;99.90;;;;;;4998971;28;20432;-89
2022/01/01 03:47:24;;;;;;;22.37;14.07;;;14.00;99.90;;;;;;5004488;28;20483;-88
2022/01/01 03:49:51;;;;;;;16.30;12.33;;;16.30;99.90;;;;;;4986847;28;20426;-88
2022/01/01 03:52:18;;;;;;;14.63;12.50;;;13.10;99.90;;;;;;4995433;28;20970;-89
2022/01/01 03:54:43;;;;;;;18.67;13.17;;;15.50;99.90;;;;;;4992233;28;20424;-89
2022/01/01 03:57:09;;;;;;;17.40;12.00;;;14.00;99.90;;;;;;5007956;28;20443;-89
2022/01/01 03:59:37;;;;;;;31.30;14.00;;;16.10;99.90;;;;;;4992909;28;21045;-89
2022/01/01 04:02:09;;;;;;;14.83;12.90;;;13.70;99.90;;;;;;4989014;28;20200;-89
2022/01/01 04:04:41;;;;;;;21.13;13.50;;;14.50;99.90;;;;;;4988438;28;20897;-89
2022/01/01 04:07:12;;;;;;;16.57;12.90;;;13.60;99.90;;;;;;4987339;28;20474;-90
2022/01/01 04:09:37;;;;;;;20.33;12.70;;;16.70;99.90;;;;;;4971889;28;20563;-89
2022/01/01 04:12:06;;;;;;;19.20;11.87;;;13.20;99.90;;;;;;4991224;28;20439;-90
2022/01/01 04:14:47;;;;;;;23.27;12.90;;;11.20;99.90;;;;;;4979385;28;20189;-89
2022/01/01 04:17:13;;;;;;;16.23;11.43;;;15.60;99.90;;;;;;4989417;28;20479;-89
2022/01/01 04:19:41;;;;;;;16.90;13.20;;;13.50;99.90;;;;;;4987140;28;20474;-89
2022/01/01 04:22:12;;;;;;;14.30;10.60;;;14.80;99.90;;;;;;5015529;28;20755;-89
2022/01/01 04:24:41;;;;;;;18.50;13.90;;;17.00;99.90;;;;;;4976897;28;20437;-89
2022/01/01 04:27:08;;;;;;;22.80;12.00;;;17.10;99.90;;;;;;4988642;28;20506;-89
2022/01/01 04:29:38;;;;;;;13.87;10.80;;;15.90;99.90;;;;;;4977152;28;20515;-89
2022/01/01 04:32:04;;;;;;;13.63;11.20;;;15.60;99.90;;;;;;4991064;28;20439;-88
2022/01/01 04:34:30;;;;;;;13.77;10.70;;;14.20;99.90;;;;;;4991442;28;20436;-90
2022/01/01 04:37:05;;;;;;;14.63;9.27;;;13.90;99.90;;;;;;5006437;28;20427;-90
2022/01/01 04:39:31;;;;;;;14.27;10.40;;;13.80;99.90;;;;;;4989632;28;20212;-89
2022/01/01 04:41:59;;;;;;;11.20;8.03;;;15.00;99.90;;;;;;4989347;28;20477;-91
2022/01/01 04:44:25;;;;;;;11.70;7.97;;;17.20;99.90;;;;;;4990953;28;20964;-88
2022/01/01 04:46:51;;;;;;;8.70;7.80;;;16.10;99.90;;;;;;5009235;28;20953;-90
2022/01/01 04:49:19;;;;;;;13.20;7.87;;;13.30;99.90;;;;;;5018922;28;20945;-90
2022/01/01 04:51:44;;;;;;;9.50;7.57;;;13.30;99.90;;;;;;5020252;28;20446;-89
2022/01/01 04:54:44;;;;;;;;;;;;;;;;;;;;;
2022/01/01 05:13:33;;;;;;;12.20;6.80;;;13.80;99.90;;;;;;4958225;26;20731;-87
2022/01/01 05:16:02;;;;;;;16.00;6.90;;;17.00;99.90;;;;;;4972704;28;20440;-88
2022/01/01 05:18:28;;;;;;;15.83;7.03;;;14.20;99.90;;;;;;4974980;28;20433;-89
2022/01/01 05:20:54;;;;;;;10.80;6.23;;;14.50;99.90;;;;;;4989655;28;20463;-88
2022/01/01 05:23:22;;;;;;;7.40;6.70;;;15.40;99.90;;;;;;4974844;28;20185;-88
2022/01/01 05:25:51;;;;;;;10.13;7.40;;;12.90;99.90;;;;;;4975581;28;20256;-88
2022/01/01 05:28:18;;;;;;;13.10;6.97;;;15.10;99.90;;;;;;4987628;28;21004;-89
2022/01/01 05:30:44;;;;;;;11.80;6.90;;;14.70;99.90;;;;;;4979013;28;20914;-85
2022/01/01 05:33:15;;;;;;;8.03;6.43;;;14.30;99.90;;;;;;4974840;28;20452;-87
2022/01/01 05:35:44;;;;;;;10.23;6.53;;;15.70;99.90;;;;;;4960366;28;20449;-88
2022/01/01 05:38:38;;;;;;;8.00;6.83;;;14.30;99.90;;;;;;4982989;28;20466;-88
2022/01/01 05:41:14;;;;;;;8.80;7.10;;;16.10;99.90;;;;;;4962537;28;20802;-88
2022/01/01 05:43:40;;;;;;;10.17;7.03;;;14.80;99.90;;;;;;4981953;28;20432;-89
2022/01/01 05:46:25;;;;;;;11.90;6.77;;;16.40;99.90;;;;;;4966210;28;20447;-89
2022/01/01 05:49:09;;;;;;;9.60;7.37;;;17.00;99.90;;;;;;4966304;28;20206;-88
2022/01/01 05:51:48;;;;;;;8.83;6.33;;;13.70;99.90;;;;;;4988945;28;20423;-89
2022/01/01 05:54:20;;;;;;;12.00;7.67;;;14.50;99.90;;;;;;4965807;28;20431;-88
2022/01/01 05:57:10;;;;;;;11.63;6.57;;;14.30;99.90;;;;;;4964090;28;20459;-87
2022/01/01 05:59:41;;;;;;;8.00;6.43;;;13.10;99.90;;;;;;4983528;28;20425;-88
2022/01/01 06:02:39;;;;;;;8.40;6.50;;;16.00;99.90;;;;;;4953064;28;20765;-88
2022/01/01 06:05:15;;;;;;;7.87;7.07;;;14.30;99.90;;;;;;4968369;28;20445;-88
2022/01/01 06:08:28;;;;;;;11.37;7.33;;;15.50;99.90;;;;;;4961997;28;20965;-90
2022/01/01 06:11:26;;;;;;;15.70;6.97;;;14.00;99.90;;;;;;4885764;29;20589;-91
2022/01/01 06:17:19;;;;;;;7.97;6.80;;;14.90;99.90;;;;;;4877511;29;20446;-90
2022/01/01 06:22:46;;;;;;;8.13;7.33;;;12.80;99.90;;;;;;4941275;29;20422;-89
2022/01/01 06:25:18;;;;;;;7.90;6.60;;;15.40;99.90;;;;;;4925132;29;20434;-89
2022/01/01 06:28:10;;;;;;;17.00;6.90;;;14.70;99.90;;;;;;4922376;28;20512;-90
2022/01/01 06:35:10;;;;;;;;;;;;;;;;;;;;;
2022/01/01 06:38:00;;;;;;;13.80;6.50;;;16.00;99.90;;;;;;4928726;29;20446;-89
2022/01/01 06:40:26;;;;;;;8.77;6.70;;;17.70;99.90;;;;;;4927565;29;20446;-88
2022/01/01 06:43:10;;;;;;;9.53;5.80;;;13.30;99.90;;;;;;4922600;28;20434;-89
2022/01/01 06:45:36;;;;;;;10.30;6.30;;;14.10;99.90;;;;;;4939430;28;20456;-89
2022/01/01 06:48:02;;;;;;;9.60;7.23;;;13.70;99.90;;;;;;4958666;28;20564;-87
2022/01/01 06:50:29;;;;;;;7.60;6.83;;;13.50;99.90;;;;;;4956312;28;20446;-90
2022/01/01 06:52:55;;;;;;;12.00;5.77;;;16.30;99.90;;;;;;4951731;28;20702;-84
2022/01/01 06:55:23;;;;;;;6.33;5.10;;;17.00;99.90;;;;;;4950051;28;20530;-88
2022/01/01 06:57:49;;;;;;;15.00;7.00;;;16.60;99.90;;;;;;4965452;28;20973;-84
2022/01/01 07:00:16;;;;;;;8.53;5.67;;;13.20;99.90;;;;;;4946742;28;20444;-87
2022/01/01 07:02:56;;;;;;;7.40;5.70;;;13.40;99.90;;;;;;4941741;28;20484;-88
2022/01/01 07:05:22;;;;;;;5.67;4.90;;;14.60;99.90;;;;;;4946242;28;20967;-87
2022/01/01 07:07:48;;;;;;;8.63;5.87;;;;;;;;;;4963256;28;20481;-87
2022/01/01 07:10:19;;;;;;;7.90;5.23;;;13.40;99.90;;;;;;4955904;28;20659;-87
2022/01/01 07:12:45;;;;;;;7.17;5.20;;;16.00;99.90;;;;;;4953187;28;20453;-87
2022/01/01 07:15:15;;;;;;;10.20;5.50;;;11.90;99.90;;;;;;4961737;28;20540;-86
2022/01/01 07:17:43;;;;;;;6.23;5.67;;;13.30;99.90;;;;;;4959645;28;20209;-88
2022/01/01 07:20:12;;;;;;;8.47;5.57;;;15.70;99.90;;;;;;4814682;28;3892646;-90
2022/01/01 07:22:45;;;;;;;6.40;5.17;;;13.60;99.90;;;;;;4960819;28;20202;-88
2022/01/01 07:25:17;;;;;;;7.90;5.33;;;15.80;99.90;;;;;;4966809;28;20441;-87
2022/01/01 07:27:44;;;;;;;7.83;5.23;;;16.50;99.90;;;;;;4940216;28;20541;-87
2022/01/01 07:30:10;;;;;;;5.80;4.63;;;13.90;99.90;;;;;;4964770;28;20468;-86
2022/01/01 07:32:44;;;;;;;6.80;4.77;;;13.40;99.90;;;;;;4963107;28;20441;-87
2022/01/01 07:35:15;;;;;;;5.40;4.40;;;13.40;99.90;;;;;;4943591;28;20449;-87
2022/01/01 07:37:43;;;;;;;8.77;5.00;;;13.30;99.90;;;;;;4962524;28;20536;-86
2022/01/01 07:40:12;;;;;;;6.33;5.27;;;13.00;99.90;;;;;;4963479;28;20943;-87
2022/01/01 07:42:41;;;;;;;5.73;5.17;;;12.60;99.90;;;;;;4959384;28;20674;-88
2022/01/01 07:45:10;;;;;;;5.63;4.80;;;11.00;99.90;;;;;;4950570;28;20484;-87
2022/01/01 07:47:39;;;;;;;6.20;4.00;;;13.50;99.90;;;;;;4933243;29;20510;-86
2022/01/01 07:50:07;;;;;;;8.93;4.37;;;13.50;99.90;;;;;;4950843;28;21259;-85
2022/01/01 07:52:33;;;;;;;4.70;3.60;;;13.40;99.90;;;;;;4963964;28;20445;-86
2022/01/01 07:54:59;;;;;;;5.90;5.00;;;14.40;99.90;;;;;;4962845;28;20472;-87
2022/01/01 07:57:24;;;;;;;8.30;4.37;;;13.00;99.90;;;;;;4955076;28;20213;-88
2022/01/01 07:59:50;;;;;;;7.93;3.70;;;12.90;99.90;;;;;;4949150;28;20194;-86
2022/01/01 08:02:16;;;;;;;7.03;3.80;;;16.60;99.90;;;;;;4955443;28;20657;-86
2022/01/01 08:04:41;;;;;;;4.60;4.23;;;16.30;99.90;;;;;;4951741;28;20600;-87
2022/01/01 08:07:07;;;;;;;8.70;4.33;;;16.00;99.90;;;;;;4942118;28;20583;-87
2022/01/01 08:09:33;;;;;;;3.90;3.60;;;14.90;99.90;;;;;;4930193;28;20189;-88
2022/01/01 08:11:59;;;;;;;4.00;3.57;;;;;;;;;;4610536;28;10000415;-87
2022/01/01 08:14:25;;;;;;;6.27;3.30;;;13.50;99.90;;;;;;4948169;29;20601;-87
2022/01/01 08:17:13;;;;;;;6.10;4.23;;;14.10;99.90;;;;;;4947007;29;20430;-89
2022/01/01 08:19:39;;;;;;;4.40;3.33;;;13.90;99.90;;;;;;4948027;28;20222;-87
2022/01/01 08:22:05;;;;;;;3.27;2.90;;;;;;;;;;4960422;28;20452;-87
2022/01/01 08:24:31;;;;;;;4.50;3.90;;;13.60;99.90;;;;;;4966272;28;20194;-88
2022/01/01 08:26:59;;;;;;;3.73;3.30;;;15.10;99.90;;;;;;4952906;28;20532;-88
2022/01/01 08:29:49;;;;;;;7.23;3.10;;;15.60;99.90;;;;;;4947398;29;20485;-88
2022/01/01 08:32:14;;;;;;;8.50;2.60;;;13.70;99.90;;;;;;4961885;28;20444;-88
2022/01/01 08:34:41;;;;;;;3.90;3.53;;;;;;;;;;4966673;28;20456;-87
2022/01/01 08:37:08;;;;;;;8.10;3.80;;;13.70;99.90;;;;;;4953889;28;20211;-87
2022/01/01 08:39:36;;;;;;;6.20;4.57;;;13.70;99.90;;;;;;4951812;29;20462;-87
2022/01/01 08:42:05;;;;;;;7.63;3.20;;;14.80;99.90;;;;;;4962787;28;21301;-87
2022/01/01 08:44:31;;;;;;;5.47;2.67;;;13.40;99.90;;;;;;4950586;28;21012;-87
2022/01/01 08:46:57;;;;;;;4.87;3.60;;;15.10;99.90;;;;;;4953013;28;20488;-86
2022/01/01 08:49:23;;;;;;;3.60;3.23;;;15.80;99.90;;;;;;4947664;29;20975;-88
2022/01/01 08:52:13;;;;;;;3.90;2.97;;;14.60;99.90;;;;;;4959743;28;20445;-88
2022/01/01 08:54:43;;;;;;;4.90;3.63;;;13.10;99.90;;;;;;4968689;28;20178;-89
2022/01/01 08:57:49;;;;;;;;;;;;;;;;;;;;;
2022/01/01 09:00:21;;;;;;;5.00;3.17;;;14.90;99.90;;;;;;4954543;28;20537;-87
2022/01/01 09:02:47;;;;;;;3.30;3.10;;;14.30;99.90;;;;;;4926514;29;20498;-86
2022/01/01 09:05:24;;;;;;;;;;;;;;;;;;;;;
2022/01/01 09:08:06;;;;;;;3.77;3.47;;;13.70;99.90;;;;;;4929169;29;20492;-88
2022/01/01 09:10:32;;;;;;;3.30;3.10;;;14.80;99.90;;;;;;4931925;28;20434;-89
2022/01/01 09:12:58;;;;;;;3.93;2.93;;;15.20;99.90;;;;;;4935821;28;20502;-89
2022/01/01 09:15:35;;;;;;;3.90;2.40;;;14.20;99.90;;;;;;4929468;28;21367;-89
2022/01/01 09:18:14;;;;;;;3.23;2.30;;;15.10;99.90;;;;;;4929422;28;20442;-86
2022/01/01 09:20:41;;;;;;;5.20;2.70;;;14.00;99.90;;;;;;4929690;29;20509;-86
2022/01/01 09:23:13;;;;;;;2.63;2.40;;;14.30;99.90;;;;;;4935107;28;20968;-86
2022/01/01 09:25:41;;;;;;;3.47;2.80;;;16.00;99.90;;;;;;4932024;29;20922;-87
2022/01/01 09:28:10;;;;;;;3.03;2.13;;;14.40;99.90;;;;;;4932766;28;20789;-84
2022/01/01 09:30:36;;;;;;;3.07;2.87;;;14.30;99.90;;;;;;4929615;28;20466;-87
2022/01/01 09:33:03;;;;;;;4.30;2.73;;;14.30;99.90;;;;;;4931246;29;20460;-86
2022/01/01 09:35:29;;;;;;;3.13;2.60;;;17.90;99.90;;;;;;4930831;28;20785;-89
2022/01/01 09:37:58;;;;;;;5.30;2.67;;;15.10;99.90;;;;;;4927371;29;20526;-87
2022/01/01 09:40:25;;;;;;;5.10;2.77;;;17.90;99.90;;;;;;4947980;28;20574;-86
2022/01/01 09:42:52;;;;;;;6.03;5.60;;;15.30;99.90;;;;;;4949198;28;20430;-87
2022/01/01 09:45:21;;;;;;;3.67;2.80;;;16.90;99.90;;;;;;4946421;28;20465;-89
2022/01/01 09:47:47;;;;;;;4.90;1.70;;;17.60;99.90;;;;;;4955472;28;20482;-83
2022/01/01 09:50:19;;;;;;;2.87;2.17;;;18.50;99.90;;;;;;4932767;28;20438;-89
2022/01/01 09:52:45;;;;;;;4.10;2.90;;;20.60;99.90;;;;;;4929248;28;20437;-89
2022/01/01 09:55:11;;;;;;;3.77;2.07;;;18.50;99.90;;;;;;4932897;29;21168;-86
2022/01/01 09:57:58;;;;;;;4.10;2.17;;;17.70;99.90;;;;;;4934530;28;20226;-89
2022/01/01 10:00:37;;;;;;;2.57;2.30;;;17.60;99.90;;;;;;4946309;28;20528;-89
2022/01/01 10:03:11;;;;;;;3.33;2.43;;;17.00;99.90;;;;;;4958369;28;20434;-86
2022/01/01 10:06:04;;;;;;;2.77;2.10;;;16.00;99.90;;;;;;4932917;29;20807;-88
2022/01/01 10:09:05;;;;;;;7.90;2.90;;;16.90;99.90;;;;;;4941583;29;20481;-87
2022/01/01 10:11:34;;;;;;;4.20;2.47;;;18.20;99.90;;;;;;4957882;28;20447;-87
2022/01/01 10:14:14;;;;;;;3.63;2.23;;;19.80;99.90;;;;;;4967388;28;20548;-88
2022/01/01 10:17:20;;;;;;;4.83;2.97;;;18.80;99.90;;;;;;4928587;29;20441;-87
2022/01/01 10:20:29;;;;;;;2.50;2.40;;;15.60;99.90;;;;;;4964184;28;20544;-87
2022/01/01 10:22:55;;;;;;;2.30;2.07;;;15.30;99.90;;;;;;5053204;23;20478;-83
2022/01/01 10:28:06;;;;;;;2.90;2.70;;;15.30;99.90;;;;;;5003314;28;20238;-83
2022/01/01 10:30:36;;;;;;;3.53;2.60;;;15.90;99.90;;;;;;5002289;28;20646;-85
2022/01/01 10:33:12;;;;;;;3.03;2.83;;;15.70;99.90;;;;;;4983719;28;20487;-85
2022/01/01 10:35:45;;;;;;;2.33;2.23;;;15.50;99.90;;;;;;4981367;28;20429;-83
2022/01/01 10:40:46;;;;;;;3.40;2.40;;;15.70;99.90;;;;;;4772176;26;20508;-88
2022/01/01 10:43:16;;;;;;;2.20;2.10;;;16.10;99.90;;;;;;4972765;28;20447;-87
2022/01/01 10:45:47;;;;;;;3.00;2.57;;;18.40;99.90;;;;;;4975459;28;20441;-89
2022/01/01 10:50:51;;;;;;;3.50;1.80;;;16.20;99.90;;;;;;4960559;28;20807;-88
2022/01/01 10:53:47;;;;;;;3.60;2.70;;;16.20;99.90;;;;;;4954492;28;20517;-88
2022/01/01 10:56:19;;;;;;;7.33;2.33;;;16.30;99.90;;;;;;4970302;28;20446;-89
2022/01/01 10:58:44;;;;;;;4.40;2.50;;;17.40;99.90;;;;;;4974930;28;20417;-88
2022/01/01 11:01:11;;;;;;;3.70;2.23;;;18.10;99.90;;;;;;4992980;28;20672;-88
2022/01/01 11:03:42;;;;;;;1.63;1.63;;;15.00;99.90;;;;;;4998540;28;20535;-86
2022/01/01 11:06:10;;;;;;;3.23;2.40;;;15.40;99.90;;;;;;4985824;28;20428;-87
2022/01/01 11:08:47;;;;;;;4.00;2.37;;;15.50;99.90;;;;;;4986058;28;20468;-87
2022/01/01 11:11:15;;;;;;;2.03;1.87;;;18.00;99.90;;;;;;4956549;29;20418;-88
2022/01/01 11:13:42;;;;;;;5.83;2.80;;;15.80;99.90;;;;;;4954531;28;20478;-90
2022/01/01 11:16:14;;;;;;;4.70;3.07;;;16.00;99.90;;;;;;4977745;28;20421;-88
2022/01/01 11:18:40;;;;;;;7.50;2.50;;;15.70;99.90;;;;;;4959788;28;20429;-90
2022/01/01 11:21:06;;;;;;;3.80;2.53;;;15.70;99.90;;;;;;4973242;28;20492;-89
2022/01/01 11:23:34;;;;;;;2.77;2.50;;;15.90;99.90;;;;;;4976984;28;20448;-87
2022/01/01 11:26:01;;;;;;;3.03;2.47;;;15.80;99.90;;;;;;4973240;28;20190;-88
2022/01/01 11:28:27;;;;;;;4.60;2.70;;;15.50;99.90;;;;;;4955422;28;20556;-87
2022/01/01 11:31:06;;;;;;;2.50;2.30;;;17.30;99.90;;;;;;4971323;28;20441;-90
2022/01/01 11:33:36;;;;;;;2.73;2.63;;;16.00;99.90;;;;;;4972082;28;20429;-91
2022/01/01 11:36:02;;;;;;;4.00;2.43;;;16.10;99.90;;;;;;4972056;28;20452;-89
2022/01/01 11:38:31;;;;;;;3.47;2.73;;;16.30;99.90;;;;;;4974219;28;20464;-89
2022/01/01 11:41:05;;;;;;;2.97;2.70;;;16.30;99.90;;;;;;4956295;28;20471;-86
2022/01/01 11:43:54;;;;;;;3.13;2.17;;;16.40;99.90;;;;;;4957618;28;20477;-86
2022/01/01 11:46:26;;;;;;;4.20;2.40;;;16.60;99.90;;;;;;4973048;28;20421;-89
2022/01/01 11:48:56;;;;;;;3.67;2.80;;;16.60;99.90;;;;;;4976471;28;20484;-88
2022/01/01 11:51:46;;;;;;;4.23;2.27;;;16.80;99.90;;;;;;4956560;28;20429;-90
2022/01/01 11:54:18;;;;;;;5.43;2.43;;;16.80;99.90;;;;;;4960311;28;20426;-91
2022/01/01 11:56:50;;;;;;;4.23;2.70;;;16.90;99.90;;;;;;4979006;28;20810;-88
2022/01/01 11:59:20;;;;;;;3.97;2.50;;;16.70;99.90;;;;;;4958611;28;20507;-88
2022/01/01 12:01:47;;;;;;;2.57;2.37;;;17.10;99.90;;;;;;4958321;28;20410;-90
2022/01/01 12:04:43;;;;;;;3.37;3.17;;;16.60;99.90;;;;;;4973728;28;20417;-92
2022/01/01 12:07:27;;;;;;;3.50;3.30;;;17.60;99.90;;;;;;4957591;28;20601;-90
2022/01/01 12:10:11;;;;;;;2.83;2.47;;;16.80;99.90;;;;;;4988694;28;20608;-89
2022/01/01 12:12:56;;;;;;;2.50;2.30;;;16.80;99.90;;;;;;4974703;28;20429;-87
2022/01/01 12:15:45;;;;;;;4.10;2.53;;;16.20;99.90;;;;;;4990875;28;20441;-92
2022/01/01 12:18:20;;;;;;;3.73;2.60;;;19.40;99.90;;;;;;4974909;28;20440;-91
2022/01/01 12:20:47;;;;;;;2.67;2.47;;;16.80;99.90;;;;;;4959484;28;20432;-90
2022/01/01 12:23:48;;;;;;;;;;;;;;;;;;;;;
2022/01/01 12:26:50;;;;;;;;;;;;;;;;;;;;;
2022/01/01 12:29:22;;;;;;;3.67;3.40;;;16.20;99.90;;;;;;5002029;28;20463;-86
2022/01/01 12:31:58;;;;;;;8.80;6.83;;;16.30;99.90;;;;;;4969969;28;20425;-89
2022/01/01 12:35:03;;;;;;;6.33;3.67;;;16.60;99.90;;;;;;4989277;28;20427;-88
2022/01/01 12:37:36;;;;;;;3.07;2.83;;;15.90;99.90;;;;;;4964608;28;20533;-89
2022/01/01 12:40:22;;;;;;;3.17;2.30;;;17.50;99.90;;;;;;4985269;28;20461;-88
2022/01/01 12:42:48;;;;;;;3.40;3.10;;;16.60;99.90;;;;;;4958515;28;20586;-86
2022/01/01 12:45:15;;;;;;;2.87;2.67;;;16.70;99.90;;;;;;4971876;28;20437;-87
2022/01/01 12:47:41;;;;;;;3.13;2.93;;;16.90;99.90;;;;;;4976438;28;20473;-85
2022/01/01 12:50:08;;;;;;;2.63;2.43;;;17.60;99.90;;;;;;4968248;28;20430;-86
2022/01/01 12:52:34;;;;;;;5.40;2.60;;;17.50;99.90;;;;;;4970290;28;20519;-87
2022/01/01 12:55:01;;;;;;;3.57;2.63;;;16.80;99.90;;;;;;4952998;28;20441;-86
2022/01/01 12:57:31;;;;;;;2.93;2.70;;;16.90;99.90;;;;;;4969401;28;20429;-86
2022/01/01 13:00:17;;;;;;;2.00;2.00;;;16.10;99.90;;;;;;4940138;28;20429;-87
2022/01/01 13:02:43;;;;;;;2.67;2.33;;;18.70;99.90;;;;;;4971526;28;20424;-84
2022/01/01 13:05:15;;;;;;;2.23;2.03;;;16.60;99.90;;;;;;4971540;28;20425;-87
2022/01/01 13:07:42;;;;;;;2.57;1.80;;;15.80;99.90;;;;;;4952780;28;20604;-85
2022/01/01 13:10:10;;;;;;;2.73;2.60;;;16.30;99.90;;;;;;4965952;28;20424;-84
2022/01/01 13:12:39;;;;;;;3.27;3.00;;;16.00;99.90;;;;;;4952303;28;20955;-87
2022/01/01 13:15:10;;;;;;;2.00;1.90;;;17.20;99.90;;;;;;4953914;28;20422;-88
2022/01/01 13:17:47;;;;;;;2.17;1.93;;;15.80;99.90;;;;;;4973879;28;20420;-87
2022/01/01 13:20:13;;;;;;;2.37;2.17;;;14.60;99.90;;;;;;4956180;28;20424;-83
2022/01/01 13:22:42;;;;;;;2.07;1.97;;;13.50;99.90;;;;;;4952309;28;20468;-83
2022/01/01 13:25:16;;;;;;;3.20;2.60;;;14.20;99.90;;;;;;4969421;28;20472;-83
2022/01/01 13:27:46;;;;;;;2.50;2.40;;;15.90;99.90;;;;;;4969512;28;20468;-83
2022/01/01 13:30:12;;;;;;;2.93;2.50;;;16.70;99.90;;;;;;4976712;28;20772;-82
2022/01/01 13:32:40;;;;;;;3.40;3.10;;;15.00;99.90;;;;;;4970895;28;20443;-84
2022/01/01 13:35:06;;;;;;;1.73;1.50;;;17.00;99.90;;;;;;4963747;28;20437;-82
2022/01/01 13:37:32;;;;;;;3.43;2.57;;;15.70;99.90;;;;;;4972926;28;20436;-83
2022/01/01 13:39:58;;;;;;;1.90;1.80;;;15.60;99.90;;;;;;4957430;28;20471;-86
2022/01/01 13:42:24;;;;;;;1.80;1.80;;;15.30;99.90;;;;;;4990649;28;20197;-86
2022/01/01 13:44:50;;;;;;;3.53;2.50;;;16.30;99.90;;;;;;4970274;28;20512;-91
2022/01/01 13:47:28;;;;;;;2.33;2.20;;;15.60;99.90;;;;;;4958382;28;20205;-82